Time;durP1;ratioP1;P1;durP2;ratioP2;P2;SDS_P1;SDS_P2;PMS_P1;PMS_P2;Temp;Humidity;BMP_temperature;BMP_pressure;BME280_temperature;BME280_humidity;BME280_pressure;Samples;Min_cycle;Max_cycle;Signal;HPM_P1;HPM_P2
2021/07/19 00:02:00;;;;;;;8.77;2.00;;;;;;;13.98;48.96;102190.38;5050539;28;20120;-70
2021/07/19 00:04:26;;;;;;;9.18;3.20;;;;;;;13.90;49.52;102182.78;5044622;28;20104;-70
2021/07/19 00:06:51;;;;;;;10.80;2.45;;;;;;;13.91;49.10;102182.69;5049466;28;20046;-70
2021/07/19 00:09:17;;;;;;;5.93;2.50;;;;;;;14.00;48.78;102185.94;5045547;28;20125;-69
2021/07/19 00:11:43;;;;;;;9.30;2.65;;;;;;;14.06;48.61;102188.38;5048665;28;20043;-69
2021/07/19 00:14:09;;;;;;;6.20;1.88;;;;;;;14.06;48.53;102191.84;5048181;28;21303;-68
2021/07/19 00:16:36;;;;;;;6.00;2.63;;;;;;;14.06;48.65;102188.38;5063080;28;20028;-69
2021/07/19 00:19:03;;;;;;;4.95;1.90;;;;;;;14.23;48.66;102185.16;5044323;28;20035;-69
2021/07/19 00:21:29;;;;;;;6.38;2.17;;;;;;;14.41;48.19;102186.31;5047287;28;20037;-69
2021/07/19 00:23:54;;;;;;;7.40;2.10;;;;;;;14.49;47.89;102184.28;5046157;28;20033;-69
2021/07/19 00:26:20;;;;;;;5.07;2.22;;;;;;;14.53;47.65;102184.09;5046486;28;20028;-64
2021/07/19 00:28:49;;;;;;;7.28;2.22;;;;;;;14.63;47.62;102192.50;5048642;28;20124;-64
2021/07/19 00:31:16;;;;;;;8.18;2.65;;;;;;;14.75;47.32;102186.81;5044424;28;20029;-65
2021/07/19 00:33:43;;;;;;;7.68;2.50;;;;;;;14.68;47.55;102182.69;5047654;28;20705;-64
2021/07/19 00:36:10;;;;;;;6.97;1.90;;;;;;;14.85;47.13;102178.56;5049256;28;20690;-64
2021/07/19 00:38:36;;;;;;;8.85;2.20;;;;;;;14.91;46.78;102183.63;5047919;28;20139;-64
2021/07/19 00:41:03;;;;;;;7.95;1.95;;;;;;;14.90;46.35;102187.16;5047387;28;20120;-64
2021/07/19 00:43:28;;;;;;;4.63;1.55;;;;;;;14.88;45.82;102189.84;5046395;28;20063;-63
2021/07/19 00:45:54;;;;;;;3.88;2.28;;;;;;;14.79;46.48;102191.97;5047226;28;20033;-66
2021/07/19 00:48:19;;;;;;;4.90;1.77;;;;;;;14.96;46.44;102189.56;5046460;28;20039;-65
2021/07/19 00:50:45;;;;;;;9.57;1.85;;;;;;;15.04;46.11;102187.50;5047082;28;20035;-64
2021/07/19 00:53:11;;;;;;;10.55;2.30;;;;;;;15.01;46.14;102184.97;5047643;28;20041;-64
2021/07/19 00:55:41;;;;;;;10.63;2.30;;;;;;;15.07;46.12;102187.38;5046986;28;20058;-64
2021/07/19 00:58:08;;;;;;;9.13;2.22;;;;;;;15.12;45.57;102187.19;5049804;28;20048;-64
2021/07/19 01:00:38;;;;;;;5.45;2.33;;;;;;;15.11;45.60;102191.59;5047538;28;20035;-63
2021/07/19 01:03:04;;;;;;;4.97;2.20;;;;;;;15.20;45.60;102184.28;5046316;28;20036;-64
2021/07/19 01:05:31;;;;;;;6.95;2.00;;;;;;;15.20;45.42;102179.00;5044480;28;20037;-64
2021/07/19 01:07:58;;;;;;;7.20;2.25;;;;;;;15.18;45.95;102187.81;5047257;28;20492;-64
2021/07/19 01:10:24;;;;;;;6.68;1.95;;;;;;;15.18;46.10;102171.16;5046408;28;20048;-64
2021/07/19 01:12:55;;;;;;;7.00;1.70;;;;;;;15.23;45.73;102186.81;5048230;28;20025;-64
2021/07/19 01:15:27;;;;;;;8.60;2.15;;;;;;;15.24;46.00;102175.34;5045798;28;20370;-65
2021/07/19 01:17:54;;;;;;;3.17;1.55;;;;;;;15.29;46.26;102186.59;5047032;28;20471;-66
2021/07/19 01:20:26;;;;;;;5.68;1.95;;;;;;;15.33;45.92;102182.91;5047254;28;20063;-65
2021/07/19 01:23:13;;;;;;;10.70;3.00;;;;;;;15.25;46.13;102179.72;5043466;28;20116;-65
2021/07/19 01:25:44;;;;;;;3.50;1.70;;;;;;;15.25;46.39;102179.72;5047318;28;20184;-65
2021/07/19 01:28:16;;;;;;;7.15;2.67;;;;;;;15.37;46.14;102177.47;5045144;28;20036;-65
2021/07/19 01:30:43;;;;;;;9.90;2.38;;;;;;;15.45;46.20;102174.50;5049494;28;20078;-65
2021/07/19 01:33:11;;;;;;;7.25;1.63;;;;;;;15.57;46.00;102174.03;5046495;28;20059;-68
2021/07/19 01:35:44;;;;;;;17.25;3.38;;;;;;;15.50;45.64;102172.53;5044475;28;20040;-67
2021/07/19 01:38:12;;;;;;;9.57;2.25;;;;;;;15.53;46.01;102167.16;5062395;28;20037;-66
2021/07/19 01:40:44;;;;;;;3.83;1.40;;;;;;;15.58;46.08;102170.47;5045498;28;20048;-66
2021/07/19 01:43:12;;;;;;;7.35;2.85;;;;;;;15.53;46.14;102167.16;5044940;28;20067;-67
2021/07/19 01:45:38;;;;;;;9.02;2.05;;;;;;;15.50;46.12;102163.78;5046992;28;20039;-67
2021/07/19 01:48:08;;;;;;;9.98;1.83;;;;;;;15.62;45.80;102163.31;5044701;28;20029;-68
2021/07/19 01:50:37;;;;;;;6.90;2.17;;;;;;;15.30;46.11;102169.84;5044837;28;20025;-67
2021/07/19 01:53:17;;;;;;;6.68;3.08;;;;;;;15.44;45.49;102167.53;5045195;28;20025;-69
2021/07/19 01:55:44;;;;;;;7.55;2.15;;;;;;;15.43;46.02;102164.97;5027196;28;20039;-68
2021/07/19 01:58:13;;;;;;;8.98;2.63;;;;;;;15.37;46.10;102161.66;5027521;28;20028;-69
2021/07/19 02:00:47;;;;;;;4.10;1.52;;;;;;;15.23;46.21;102160.47;5044643;28;20064;-68
2021/07/19 02:03:14;;;;;;;10.93;1.73;;;;;;;15.34;46.33;102160.91;5041566;28;20033;-67
2021/07/19 02:05:48;;;;;;;5.70;2.00;;;;;;;15.09;46.52;102161.84;5046108;28;20118;-67
2021/07/19 02:08:19;;;;;;;6.63;2.20;;;;;;;15.24;45.89;102156.91;5042934;28;20098;-66
2021/07/19 02:11:03;;;;;;;4.10;1.35;;;;;;;15.22;45.56;102158.78;5045840;28;20354;-67
2021/07/19 02:13:33;;;;;;;4.95;1.27;;;;;;;15.05;45.50;102157.59;5050030;28;20029;-69
2021/07/19 02:16:01;;;;;;;3.22;1.30;;;;;;;15.14;45.00;102157.25;5031680;28;20028;-68
2021/07/19 02:18:34;;;;;;;8.02;2.20;;;;;;;15.03;44.75;102150.69;5045335;28;20029;-69
2021/07/19 02:21:04;;;;;;;14.23;2.08;;;;;;;14.93;44.63;102155.47;5043692;28;20094;-68
2021/07/19 02:23:34;;;;;;;6.45;2.72;;;;;;;14.86;44.39;102159.25;5045049;28;20120;-69
2021/07/19 02:26:24;;;;;;;8.02;1.85;;;;;;;14.95;44.17;102164.16;5045280;28;20051;-65
2021/07/19 02:28:51;;;;;;;4.70;1.15;;;;;;;14.86;43.98;102164.53;5059782;28;20047;-66
2021/07/19 02:31:19;;;;;;;10.30;2.00;;;;;;;14.86;43.03;102169.78;5041686;28;20037;-65
2021/07/19 02:33:48;;;;;;;10.35;2.17;;;;;;;14.44;43.21;102162.53;5044359;28;20029;-64
2021/07/19 02:36:21;;;;;;;3.55;1.02;;;;;;;14.59;42.89;102167.25;5060584;28;20445;-66
2021/07/19 02:38:48;;;;;;;4.35;1.23;;;;;;;14.64;42.86;102175.81;5046008;28;20572;-68
2021/07/19 02:41:25;;;;;;;7.13;1.25;;;;;;;14.36;43.30;102170.66;5049199;28;20219;-68
2021/07/19 02:43:58;;;;;;;8.10;1.20;;;;;;;14.21;43.68;102172.06;5026373;28;20425;-69
2021/07/19 02:46:36;;;;;;;4.82;1.00;;;;;;;14.26;43.56;102177.16;5044468;28;20025;-68
2021/07/19 02:49:09;;;;;;;8.98;1.77;;;;;;;14.17;43.79;102170.47;5042778;28;20524;-67
2021/07/19 02:51:35;;;;;;;7.97;1.52;;;;;;;14.32;43.66;102174.31;5046037;28;20534;-64
2021/07/19 02:54:21;;;;;;;5.25;1.20;;;;;;;14.34;43.93;102173.38;5044813;28;20043;-65
2021/07/19 02:56:48;;;;;;;5.32;1.80;;;;;;;14.46;43.80;102169.47;5044851;28;20041;-64
2021/07/19 02:59:14;;;;;;;11.23;1.27;;;;;;;14.47;44.08;102167.69;5044080;28;20467;-65
2021/07/19 03:01:43;;;;;;;7.95;1.15;;;;;;;14.46;43.89;102168.63;5045287;28;20033;-66
2021/07/19 03:04:09;;;;;;;7.45;1.58;;;;;;;14.46;43.80;102164.19;5046246;28;20028;-67
2021/07/19 03:06:40;;;;;;;5.65;1.48;;;;;;;14.47;44.13;102158.00;5047020;28;20064;-68
2021/07/19 03:09:12;;;;;;;5.13;0.80;;;;;;;14.43;43.95;102163.44;5052156;28;20037;-68
2021/07/19 03:11:44;;;;;;;9.07;1.33;;;;;;;14.63;43.84;102163.56;5031515;28;20036;-68
2021/07/19 03:14:22;;;;;;;5.55;1.02;;;;;;;14.76;43.73;102175.34;5047677;28;20021;-67
2021/07/19 03:16:49;;;;;;;;;;;;;;;14.89;43.18;102170.50;5054829;28;20044;-67
2021/07/19 03:19:18;;;;;;;7.35;1.13;;;;;;;14.80;43.31;102164.75;5046472;28;20297;-66
2021/07/19 03:21:46;;;;;;;4.85;1.05;;;;;;;14.94;43.05;102157.16;5050728;28;20199;-67
2021/07/19 03:24:23;;;;;;;4.72;1.27;;;;;;;15.06;43.05;102166.34;5048470;28;20025;-68
2021/07/19 03:26:49;;;;;;;6.22;1.17;;;;;;;15.08;43.16;102164.53;5049263;28;20112;-68
2021/07/19 03:29:18;;;;;;;4.78;1.77;;;;;;;15.06;43.02;102171.63;5017552;28;20052;-66
2021/07/19 03:32:19;;;;;;;6.07;1.27;;;;;;;14.91;42.92;102179.19;5037109;28;20033;-69
2021/07/19 03:34:47;;;;;;;5.68;1.05;;;;;;;14.72;43.22;102176.41;5046689;28;20528;-69
2021/07/19 03:37:15;;;;;;;7.28;1.30;;;;;;;14.68;43.51;102174.81;5049320;28;20556;-69
2021/07/19 03:39:44;;;;;;;4.53;1.13;;;;;;;14.46;43.43;102177.34;5050532;28;20554;-69
2021/07/19 03:42:14;;;;;;;5.00;1.38;;;;;;;14.41;43.14;102167.91;5033474;28;20062;-69
2021/07/19 03:44:47;;;;;;;3.97;0.90;;;;;;;14.40;43.15;102171.41;5046466;28;20020;-68
2021/07/19 03:47:16;;;;;;;3.45;0.70;;;;;;;14.33;43.26;102169.00;5048797;28;20542;-70
2021/07/19 03:49:42;;;;;;;4.30;1.15;;;;;;;14.29;43.01;102174.41;5046413;28;20043;-67
2021/07/19 03:52:08;;;;;;;6.95;1.13;;;;;;;14.32;42.68;102176.94;5048796;28;20127;-66
2021/07/19 03:54:35;;;;;;;9.43;1.17;;;;;;;14.30;42.60;102176.13;5049833;28;20097;-67
2021/07/19 03:57:04;;;;;;;6.75;2.88;;;;;;;14.55;41.94;102179.66;5046144;28;20116;-66
2021/07/19 03:59:30;;;;;;;6.57;0.93;;;;;;;14.60;41.93;102179.47;5045089;28;20511;-67
2021/07/19 04:01:57;;;;;;;7.63;1.17;;;;;;;14.80;41.67;102191.06;5050194;28;20032;-66
2021/07/19 04:04:38;;;;;;;5.63;1.30;;;;;;;14.74;41.70;102182.44;5027948;28;20071;-67
2021/07/19 04:07:06;;;;;;;5.63;0.90;;;;;;;14.92;41.09;102185.31;5031985;28;20315;-66
2021/07/19 04:09:39;;;;;;;10.70;1.17;;;;;;;14.89;41.31;102185.44;5063679;28;20094;-66
2021/07/19 04:12:12;;;;;;;2.97;0.77;;;;;;;14.61;41.83;102181.19;5051345;28;20151;-69
2021/07/19 04:14:44;;;;;;;4.10;0.75;;;;;;;14.98;41.30;102174.56;5050146;28;20116;-67
2021/07/19 04:17:10;;;;;;;3.30;1.27;;;;;;;15.02;40.99;102170.91;5048173;28;20044;-68
2021/07/19 04:19:36;;;;;;;5.82;1.65;;;;;;;14.91;41.05;102181.84;5048126;28;20489;-69
2021/07/19 04:22:02;;;;;;;7.60;1.80;;;;;;;14.95;41.35;102175.53;5046432;28;20123;-67
2021/07/19 04:24:45;;;;;;;5.20;1.77;;;;;;;15.08;40.77;102173.31;5042721;28;20410;-70
2021/07/19 04:27:13;;;;;;;8.05;1.65;;;;;;;14.99;41.52;102173.63;5048504;28;20048;-67
2021/07/19 04:29:40;;;;;;;4.85;1.98;;;;;;;15.12;41.19;102161.72;5048632;28;20039;-68
2021/07/19 04:32:06;;;;;;;5.80;1.25;;;;;;;15.02;41.24;102165.63;5045717;28;20041;-69
2021/07/19 04:34:34;;;;;;;4.95;2.22;;;;;;;14.74;42.16;102155.28;5047544;28;20036;-68
2021/07/19 04:37:08;;;;;;;8.75;2.05;;;;;;;15.05;41.30;102168.13;5047276;28;20040;-66
2021/07/19 04:39:39;;;;;;;5.95;1.77;;;;;;;14.98;41.22;102162.25;5044282;28;20033;-66
2021/07/19 04:42:08;;;;;;;6.65;2.72;;;;;;;15.27;41.21;102165.56;5044687;28;20036;-66
2021/07/19 04:44:35;;;;;;;8.63;2.72;;;;;;;15.14;41.06;102170.41;5049740;28;20032;-63
2021/07/19 04:47:01;;;;;;;9.65;2.83;;;;;;;15.34;40.59;102166.19;5047338;28;20097;-64
2021/07/19 04:49:27;;;;;;;4.75;2.17;;;;;;;15.65;40.00;102165.81;5043541;28;20092;-64
2021/07/19 04:51:53;;;;;;;6.70;2.28;;;;;;;15.76;40.01;102168.00;5045338;28;20063;-63
2021/07/19 04:54:29;;;;;;;4.70;2.03;;;;;;;15.78;39.68;102168.78;5047736;28;20032;-67
2021/07/19 04:56:58;;;;;;;8.30;2.65;;;;;;;15.96;39.90;102167.16;5047428;28;20037;-65
2021/07/19 04:59:27;;;;;;;10.60;2.30;;;;;;;15.92;39.83;102166.44;5048306;28;20059;-62
2021/07/19 05:01:55;;;;;;;5.72;2.03;;;;;;;16.05;39.52;102168.59;5031327;28;20032;-64
2021/07/19 05:04:25;;;;;;;3.55;1.60;;;;;;;16.23;39.63;102167.78;5045969;28;20089;-65
2021/07/19 05:06:52;;;;;;;7.35;2.15;;;;;;;16.14;39.60;102169.03;5049338;28;20047;-64
2021/07/19 05:09:18;;;;;;;9.63;2.75;;;;;;;15.99;40.04;102167.91;5048756;28;20080;-70
2021/07/19 05:11:45;;;;;;;6.20;1.92;;;;;;;16.33;38.69;102169.09;5049222;28;20118;-68
2021/07/19 05:14:11;;;;;;;5.22;1.75;;;;;;;16.80;38.20;102166.13;5047576;28;20438;-68
2021/07/19 05:16:39;;;;;;;4.55;2.22;;;;;;;16.81;38.16;102159.06;5046637;28;20030;-66
2021/07/19 05:19:04;;;;;;;6.20;1.92;;;;;;;17.10;37.19;102165.63;5045358;28;20690;-62
2021/07/19 05:21:33;;;;;;;7.65;1.42;;;;;;;18.86;34.21;102161.09;5044369;28;20026;-65
2021/07/19 05:23:59;;;;;;;4.78;1.95;;;;;;;20.09;31.68;102151.41;5046484;28;20412;-65
2021/07/19 05:26:24;;;;;;;8.57;1.73;;;;;;;20.26;31.10;102149.56;5044161;28;20033;-65
2021/07/19 05:28:50;;;;;;;5.20;1.63;;;;;;;20.74;31.08;102150.97;5050296;28;20487;-65
2021/07/19 05:31:15;;;;;;;4.60;1.55;;;;;;;21.82;28.66;102151.09;5025676;28;20075;-64
2021/07/19 05:33:40;;;;;;;2.88;1.13;;;;;;;21.83;27.58;102142.19;5046681;28;20283;-64
2021/07/19 05:36:06;;;;;;;5.43;1.73;;;;;;;22.36;27.12;102150.91;5045784;28;20039;-64
2021/07/19 05:38:32;;;;;;;5.25;1.50;;;;;;;22.46;27.31;102152.00;5047296;28;20031;-65
2021/07/19 05:40:57;;;;;;;4.10;1.63;;;;;;;23.05;25.74;102147.81;5049464;28;20456;-65
2021/07/19 05:43:22;;;;;;;4.00;1.17;;;;;;;23.54;25.62;102149.50;5046949;28;20159;-64
2021/07/19 05:45:48;;;;;;;5.28;1.50;;;;;;;23.23;25.53;102148.25;5048936;28;20075;-65
2021/07/19 05:48:13;;;;;;;5.85;1.50;;;;;;;23.91;24.49;102157.41;5042799;28;20032;-66
2021/07/19 05:50:39;;;;;;;2.00;1.17;;;;;;;23.97;24.48;102156.94;5048411;28;20508;-69
2021/07/19 05:53:06;;;;;;;6.63;1.13;;;;;;;23.15;25.60;102159.50;5055333;28;20048;-69
2021/07/19 05:55:31;;;;;;;2.00;0.73;;;;;;;23.77;25.35;102161.97;5055781;28;20206;-65
2021/07/19 05:57:59;;;;;;;5.05;0.82;;;;;;;22.26;27.13;102155.22;5047727;28;20040;-65
2021/07/19 06:00:24;;;;;;;3.28;0.93;;;;;;;21.28;28.84;102163.47;5048261;28;20037;-64
2021/07/19 06:02:50;;;;;;;5.13;1.27;;;;;;;20.47;30.22;102161.53;5050537;28;20652;-64
2021/07/19 06:05:16;;;;;;;4.50;0.95;;;;;;;19.55;31.87;102167.03;5045054;28;20036;-65
2021/07/19 06:07:41;;;;;;;5.35;1.08;;;;;;;19.32;32.68;102164.78;5047683;28;20037;-65
2021/07/19 06:10:10;;;;;;;4.35;0.90;;;;;;;20.48;30.67;102168.53;5047229;28;20037;-64
2021/07/19 06:12:36;;;;;;;4.65;0.80;;;;;;;22.70;28.09;102161.91;5044740;28;20028;-64
2021/07/19 06:15:04;;;;;;;4.43;1.00;;;;;;;22.51;28.03;102165.81;5046121;28;20503;-63
2021/07/19 06:17:31;;;;;;;3.05;0.93;;;;;;;22.70;26.88;102168.06;5047167;28;20390;-65
2021/07/19 06:19:57;;;;;;;4.95;1.05;;;;;;;22.98;26.37;102166.06;5047723;28;20056;-65
2021/07/19 06:22:22;;;;;;;8.68;1.48;;;;;;;22.93;26.69;102162.91;5044140;28;20052;-65
2021/07/19 06:24:50;;;;;;;5.05;1.15;;;;;;;23.48;25.53;102166.84;5046580;28;20064;-64
2021/07/19 06:27:16;;;;;;;2.70;0.98;;;;;;;23.59;24.81;102168.72;5041687;28;20353;-64
2021/07/19 06:29:42;;;;;;;5.47;1.40;;;;;;;23.01;25.96;102173.84;5048220;28;20041;-62
2021/07/19 06:32:07;;;;;;;3.83;0.95;;;;;;;23.53;25.07;102164.69;5046033;28;20059;-63
2021/07/19 06:34:33;;;;;;;5.72;1.98;;;;;;;24.09;24.50;102169.34;5045000;28;20033;-62
2021/07/19 06:36:58;;;;;;;6.47;2.33;;;;;;;24.69;23.54;102169.16;5043701;28;20040;-63
2021/07/19 06:39:24;;;;;;;9.18;1.48;;;;;;;24.73;23.51;102171.44;5046270;28;20302;-66
2021/07/19 06:41:49;;;;;;;4.35;1.40;;;;;;;23.24;24.95;102166.81;5043384;28;20128;-63
2021/07/19 06:44:15;;;;;;;3.60;1.52;;;;;;;22.44;27.03;102174.38;5049270;28;20029;-64
2021/07/19 06:46:40;;;;;;;4.55;1.55;;;;;;;21.18;28.54;102182.78;5042116;28;20033;-65
2021/07/19 06:49:06;;;;;;;4.00;1.63;;;;;;;21.79;27.72;102181.44;5045262;28;20044;-63
2021/07/19 06:51:32;;;;;;;5.82;1.30;;;;;;;22.47;26.77;102175.03;5048074;28;20375;-64
2021/07/19 06:53:57;;;;;;;6.35;1.67;;;;;;;21.29;28.44;102186.47;5043571;28;20086;-64
2021/07/19 06:56:23;;;;;;;3.42;1.45;;;;;;;21.59;28.13;102190.75;5043225;28;20033;-67
2021/07/19 06:58:48;;;;;;;6.32;1.75;;;;;;;21.27;28.74;102188.38;5043498;28;20040;-65
2021/07/19 07:01:14;;;;;;;4.43;1.42;;;;;;;21.45;29.06;102194.31;5041542;28;20040;-65
2021/07/19 07:03:40;;;;;;;4.13;1.50;;;;;;;22.03;27.33;102191.38;5045078;28;20155;-63
2021/07/19 07:06:05;;;;;;;3.67;1.52;;;;;;;22.19;27.99;102186.72;5046668;28;20519;-65
2021/07/19 07:08:31;;;;;;;3.88;1.25;;;;;;;24.71;24.79;102186.75;5028019;28;20396;-65
2021/07/19 07:10:58;;;;;;;4.25;1.25;;;;;;;25.72;23.37;102188.31;5042597;28;20169;-68
2021/07/19 07:13:23;;;;;;;4.63;1.67;;;;;;;27.39;22.06;102188.88;5044715;28;20481;-65
2021/07/19 07:15:49;;;;;;;9.15;1.55;;;;;;;26.97;22.66;102193.59;5043715;28;20028;-66
2021/07/19 07:18:15;;;;;;;5.50;1.85;;;;;;;26.29;23.25;102192.38;5043434;28;20520;-66
2021/07/19 07:20:41;;;;;;;4.82;1.63;;;;;;;27.20;21.70;102194.22;5043703;28;20029;-66
2021/07/19 07:23:07;;;;;;;2.55;1.90;;;;;;;27.02;21.14;102188.66;5042957;28;20052;-65
2021/07/19 07:25:33;;;;;;;4.55;2.25;;;;;;;25.08;23.81;102197.16;5040978;28;20063;-65
2021/07/19 07:27:59;;;;;;;5.03;2.47;;;;;;;22.48;26.86;102199.84;5043130;28;20029;-66
2021/07/19 07:30:25;;;;;;;5.70;2.38;;;;;;;21.82;28.43;102206.97;5044106;28;20037;-66
2021/07/19 07:32:52;;;;;;;4.72;2.42;;;;;;;21.30;29.02;102193.50;5046221;28;20037;-65
2021/07/19 07:35:18;;;;;;;5.60;2.50;;;;;;;21.18;29.86;102201.41;5037195;28;20048;-64
2021/07/19 07:37:44;;;;;;;6.38;1.90;;;;;;;21.39;29.15;102201.81;5041204;28;20409;-65
2021/07/19 07:40:13;;;;;;;2.97;1.48;;;;;;;20.52;29.85;102199.25;5041199;28;20029;-64
2021/07/19 07:42:39;;;;;;;4.05;2.20;;;;;;;19.86;30.23;102203.22;5041465;28;20028;-65
2021/07/19 07:45:06;;;;;;;7.85;2.42;;;;;;;20.02;30.04;102192.56;5042125;28;20355;-64
2021/07/19 07:47:32;;;;;;;5.15;2.35;;;;;;;19.93;30.45;102195.75;5040981;28;20033;-64
2021/07/19 07:49:59;;;;;;;4.45;2.40;;;;;;;20.70;30.09;102199.06;5041781;28;20047;-64
2021/07/19 07:52:24;;;;;;;4.13;2.33;;;;;;;21.21;29.91;102198.56;5044368;28;20043;-65
2021/07/19 07:54:50;;;;;;;3.35;2.53;;;;;;;21.04;29.68;102196.97;5045577;28;20037;-65
2021/07/19 07:57:16;;;;;;;6.78;3.20;;;;;;;21.09;29.04;102203.72;5040999;28;20102;-65
2021/07/19 07:59:41;;;;;;;8.35;2.40;;;;;;;22.77;27.14;102192.47;5049139;28;20433;-65
2021/07/19 08:02:07;;;;;;;7.28;2.55;;;;;;;23.79;25.51;102200.06;5048001;28;20044;-64
2021/07/19 08:04:33;;;;;;;7.28;2.67;;;;;;;22.94;27.18;102197.44;5047370;28;20031;-64
2021/07/19 08:07:00;;;;;;;7.00;2.83;;;;;;;22.26;27.82;102193.34;5048508;28;20346;-64
2021/07/19 08:09:26;;;;;;;5.13;2.72;;;;;;;21.74;27.77;102195.06;5054159;28;20038;-62
2021/07/19 08:11:53;;;;;;;6.80;3.35;;;;;;;22.58;27.58;102185.75;5060659;28;20043;-64
2021/07/19 08:14:18;;;;;;;5.22;2.40;;;;;;;24.05;24.92;102191.06;5052774;28;20200;-65
2021/07/19 08:16:44;;;;;;;7.18;2.75;;;;;;;25.94;22.04;102186.50;5048480;28;20225;-66
2021/07/19 08:19:10;;;;;;;3.78;2.00;;;;;;;27.49;20.73;102178.97;5045275;28;20025;-65
2021/07/19 08:21:38;;;;;;;3.80;2.15;;;;;;;27.42;20.69;102171.63;5047223;28;20055;-64
2021/07/19 08:24:04;;;;;;;4.90;2.72;;;;;;;25.85;23.30;102188.97;5047478;28;20105;-63
2021/07/19 08:26:30;;;;;;;5.85;2.70;;;;;;;23.77;25.21;102183.31;5049644;28;20461;-63
2021/07/19 08:28:56;;;;;;;3.83;2.13;;;;;;;21.84;28.08;102191.78;5047608;28;20036;-63
2021/07/19 08:31:23;;;;;;;4.25;2.20;;;;;;;20.85;29.15;102194.66;5048378;28;20032;-65
2021/07/19 08:33:49;;;;;;;5.78;2.45;;;;;;;19.82;30.83;102193.72;5048113;28;20413;-66
2021/07/19 08:36:15;;;;;;;4.10;2.53;;;;;;;19.54;30.98;102186.47;5048929;28;20037;-64
2021/07/19 08:38:40;;;;;;;6.25;2.67;;;;;;;19.30;32.98;102183.44;5047227;28;20037;-64
2021/07/19 08:41:07;;;;;;;4.40;2.70;;;;;;;19.02;33.52;102189.44;5049364;28;20033;-67
2021/07/19 08:43:34;;;;;;;3.72;2.17;;;;;;;18.83;34.13;102185.13;5050064;28;20037;-65
2021/07/19 08:46:00;;;;;;;6.10;2.75;;;;;;;18.27;35.24;102192.50;5046897;28;20035;-64
2021/07/19 08:48:26;;;;;;;5.05;2.08;;;;;;;18.09;35.85;102190.75;5049679;28;20041;-64
2021/07/19 08:50:52;;;;;;;8.27;2.50;;;;;;;17.93;36.13;102197.75;5051280;28;20040;-63
2021/07/19 08:53:18;;;;;;;6.75;2.20;;;;;;;17.37;37.03;102204.88;5045605;28;20093;-65
2021/07/19 08:55:49;;;;;;;14.07;2.30;;;;;;;17.61;36.79;102195.78;5045246;28;20429;-67
2021/07/19 08:58:15;;;;;;;8.93;2.35;;;;;;;17.69;37.59;102205.13;5046826;28;20029;-64
2021/07/19 09:00:41;;;;;;;8.55;2.58;;;;;;;17.81;36.88;102197.44;5048958;28;20083;-64
2021/07/19 09:03:07;;;;;;;11.38;1.95;;;;;;;17.57;37.47;102207.44;5049165;28;20477;-66
2021/07/19 09:05:32;;;;;;;7.18;1.63;;;;;;;17.53;37.53;102195.28;5047890;28;20152;-64
2021/07/19 09:07:59;;;;;;;20.60;2.70;;;;;;;17.41;37.53;102202.00;5048032;28;20049;-63
2021/07/19 09:10:26;;;;;;;5.05;2.67;;;;;;;17.09;37.86;102195.63;5050217;28;20040;-65
2021/07/19 09:12:53;;;;;;;4.80;2.15;;;;;;;17.17;38.35;102206.66;5051482;28;20041;-65
2021/07/19 09:15:45;;;;;;;4.88;2.42;;;;;;;17.09;38.46;102211.47;5046590;28;20032;-65
2021/07/19 09:18:19;;;;;;;;;;;;;;;17.21;38.02;102210.88;5046596;28;20052;-63
2021/07/19 09:20:45;;;;;;;5.93;2.78;;;;;;;17.15;38.42;102212.97;5044961;28;19958;-65
2021/07/19 09:23:12;;;;;;;6.00;2.72;;;;;;;16.81;39.41;102215.38;5029180;28;20041;-63
2021/07/19 09:25:38;;;;;;;8.95;3.05;;;;;;;16.89;40.04;102219.44;5046627;28;20119;-65
2021/07/19 09:28:08;;;;;;;8.38;2.60;;;;;;;16.96;40.48;102210.34;5044400;28;20086;-64
2021/07/19 09:30:43;;;;;;;9.02;3.58;;;;;;;16.75;40.48;102213.00;5043889;28;20066;-63
2021/07/19 09:33:12;;;;;;;8.10;3.00;;;;;;;16.76;40.46;102209.44;5046331;28;20144;-65
2021/07/19 09:35:43;;;;;;;6.03;2.95;;;;;;;16.86;41.64;102209.03;5044832;28;20523;-65
2021/07/19 09:38:13;;;;;;;7.75;3.10;;;;;;;17.15;40.77;102207.69;5045324;28;20383;-65
2021/07/19 09:40:41;;;;;;;5.88;3.05;;;;;;;17.00;41.33;102206.59;5044694;28;20036;-64
2021/07/19 09:43:17;;;;;;;9.63;3.97;;;;;;;17.12;41.23;102206.03;5052494;28;20078;-64
2021/07/19 09:45:45;;;;;;;4.40;2.70;;;;;;;17.19;40.81;102207.47;5032176;28;20040;-63
2021/07/19 09:48:12;;;;;;;5.65;2.35;;;;;;;17.25;39.95;102201.03;5046079;28;20032;-64
2021/07/19 09:50:56;;;;;;;6.88;2.80;;;;;;;17.50;39.36;102199.91;5045523;28;20036;-64
2021/07/19 09:53:38;;;;;;;9.18;3.17;;;;;;;17.58;40.21;102197.72;5047757;28;20493;-66
2021/07/19 09:56:15;;;;;;;7.32;2.50;;;;;;;17.42;39.89;102201.06;5045730;28;20044;-65
2021/07/19 09:58:47;;;;;;;11.02;3.08;;;;;;;17.65;39.97;102202.66;5044024;28;20032;-65
2021/07/19 10:01:25;;;;;;;8.15;2.80;;;;;;;17.80;39.45;102202.81;5044852;28;20427;-63
2021/07/19 10:04:02;;;;;;;5.97;2.97;;;;;;;17.77;38.93;102197.69;5048668;28;20111;-65
2021/07/19 10:06:30;;;;;;;6.43;2.50;;;;;;;17.83;39.46;102192.09;5036420;28;20069;-64
2021/07/19 10:08:57;;;;;;;3.78;2.13;;;;;;;18.03;37.76;102186.66;5045389;28;20040;-63
2021/07/19 10:11:23;;;;;;;5.30;2.28;;;;;;;18.17;37.91;102191.22;5044886;28;20029;-65
2021/07/19 10:13:49;;;;;;;6.22;2.75;;;;;;;18.33;37.45;102190.47;5047651;28;20067;-65
2021/07/19 10:16:15;;;;;;;10.13;3.03;;;;;;;18.27;38.38;102188.97;5044810;28;20285;-66
2021/07/19 10:18:42;;;;;;;7.15;3.17;;;;;;;18.57;37.39;102183.03;5044691;28;20049;-64
2021/07/19 10:21:08;;;;;;;8.32;2.75;;;;;;;18.87;37.33;102191.97;5040903;28;20044;-63
2021/07/19 10:23:37;;;;;;;9.02;2.78;;;;;;;18.83;36.82;102185.13;5050606;28;20051;-66
2021/07/19 10:26:02;;;;;;;4.75;3.22;;;;;;;18.59;36.75;102184.66;5043405;28;20531;-66
2021/07/19 10:28:28;;;;;;;5.72;2.55;;;;;;;18.60;36.89;102174.91;5045446;28;20033;-64
2021/07/19 10:30:56;;;;;;;7.93;2.80;;;;;;;18.96;36.61;102173.88;5045136;28;20484;-63
2021/07/19 10:33:22;;;;;;;10.18;2.58;;;;;;;19.42;35.49;102181.91;5044466;28;20255;-65
2021/07/19 10:35:50;;;;;;;5.07;3.42;;;;;;;19.21;35.93;102183.94;5058354;28;20036;-65
2021/07/19 10:38:19;;;;;;;5.95;2.17;;;;;;;19.35;35.86;102185.84;5047645;28;20068;-64
2021/07/19 10:40:52;;;;;;;9.75;2.85;;;;;;;19.33;36.19;102177.97;5045949;28;20033;-64
2021/07/19 10:43:17;;;;;;;5.85;3.33;;;;;;;19.44;36.69;102175.56;5044379;28;20367;-69
2021/07/19 10:45:50;;;;;;;6.10;2.58;;;;;;;19.48;35.97;102179.75;5050497;28;20036;-67
2021/07/19 10:48:32;;;;;;;5.40;2.58;;;;;;;19.35;34.85;102173.44;5041613;28;20082;-68
2021/07/19 10:51:00;;;;;;;3.60;2.63;;;;;;;19.34;34.58;102173.50;5040634;28;20040;-68
2021/07/19 10:53:32;;;;;;;6.63;2.55;;;;;;;19.48;33.85;102178.91;5044050;28;20147;-67
2021/07/19 10:56:03;;;;;;;3.67;2.60;;;;;;;19.58;32.85;102168.63;5041869;28;20033;-68
2021/07/19 10:59:00;;;;;;;5.43;2.30;;;;;;;19.37;33.92;102162.72;5041895;28;20482;-66
2021/07/19 11:01:28;;;;;;;5.38;3.15;;;;;;;19.50;33.29;102169.03;5037735;28;20124;-69
2021/07/19 11:03:57;;;;;;;6.50;3.05;;;;;;;19.53;32.98;102171.53;5045187;28;20036;-66
2021/07/19 11:06:38;;;;;;;7.65;2.72;;;;;;;19.56;32.11;102168.72;5042513;28;20091;-67
2021/07/19 11:09:07;;;;;;;4.73;2.60;;;;;;;19.59;32.59;102165.03;5045667;28;20394;-67
2021/07/19 11:11:35;;;;;;;6.38;3.33;;;;;;;19.57;31.93;102167.78;5049174;28;20283;-68
2021/07/19 11:14:04;;;;;;;5.55;2.33;;;;;;;19.08;32.96;102171.41;5045360;28;20033;-68
2021/07/19 11:16:45;;;;;;;4.07;2.15;;;;;;;18.92;32.93;102167.03;5041027;28;20063;-67
2021/07/19 11:19:13;;;;;;;5.30;3.00;;;;;;;19.41;32.60;102159.84;5038633;28;20075;-68
2021/07/19 11:21:39;;;;;;;3.88;2.60;;;;;;;19.10;32.23;102171.31;5043753;28;20037;-67
2021/07/19 11:24:12;;;;;;;5.03;2.92;;;;;;;19.50;32.50;102161.06;5046259;28;20033;-67
2021/07/19 11:26:55;;;;;;;5.00;2.42;;;;;;;19.54;31.75;102159.97;5046108;28;20606;-66
2021/07/19 11:29:38;;;;;;;4.38;2.72;;;;;;;20.09;31.03;102167.34;5034870;28;20066;-67
2021/07/19 11:32:26;;;;;;;6.35;2.58;;;;;;;20.62;31.04;102154.41;5044268;28;20072;-67